Terminal Aerodrome Forecast
Issued by NWS

Home | Current Version | Previous Version | Graphics & Text | Print | Product List | Glossary Off
Versions: 1 2 3 4 5 6 7 8 9 10 11 12 13 14 15 16 17

000
FTUS43 KMPX 281829 AAA
TAFRWF
TAF AMD
KRWF 281829Z 2818/2918 05007KT 6SM -SHRA BR SCT006 OVC040
      TEMPO 2818/2821 OVC006
     FM282100 34005KT 6SM -SHRA OVC025
      TEMPO 2821/2824 4SM -TSRA OVC015CB
     FM290600 28007KT P6SM VCSH OVC010
     FM291500 28009KT P6SM OVC018=

USA.gov is the U.S. government's official web portal to all federal, state and local government web resources and services.